sensor_id;sensor_type;location;lat;lon;timestamp;P1;durP1;ratioP1;P2;durP2;ratioP2
28192;SDS011;15473;50.840;3.396;2022-12-18T00:01:34;35.92;;;15.38;;
28192;SDS011;15473;50.840;3.396;2022-12-18T00:04:17;39.75;;;15.83;;
28192;SDS011;15473;50.840;3.396;2022-12-18T00:06:55;39.45;;;16.67;;
28192;SDS011;15473;50.840;3.396;2022-12-18T00:09:25;37.95;;;16.17;;
28192;SDS011;15473;50.840;3.396;2022-12-18T00:11:56;42.60;;;16.70;;
28192;SDS011;15473;50.840;3.396;2022-12-18T00:14:26;44.18;;;16.60;;
28192;SDS011;15473;50.840;3.396;2022-12-18T00:16:56;39.10;;;15.90;;
28192;SDS011;15473;50.840;3.396;2022-12-18T00:19:29;33.15;;;14.23;;
28192;SDS011;15473;50.840;3.396;2022-12-18T00:21:59;38.53;;;16.30;;
28192;SDS011;15473;50.840;3.396;2022-12-18T00:24:33;37.35;;;15.32;;
28192;SDS011;15473;50.840;3.396;2022-12-18T00:27:03;35.25;;;14.15;;
28192;SDS011;15473;50.840;3.396;2022-12-18T00:29:33;39.67;;;16.80;;
28192;SDS011;15473;50.840;3.396;2022-12-18T00:32:09;32.35;;;13.38;;
28192;SDS011;15473;50.840;3.396;2022-12-18T00:34:39;27.35;;;12.98;;
28192;SDS011;15473;50.840;3.396;2022-12-18T00:37:13;33.92;;;15.95;;
28192;SDS011;15473;50.840;3.396;2022-12-18T00:39:49;34.63;;;13.28;;
28192;SDS011;15473;50.840;3.396;2022-12-18T00:42:20;27.17;;;13.70;;
28192;SDS011;15473;50.840;3.396;2022-12-18T00:45:10;39.13;;;16.02;;
28192;SDS011;15473;50.840;3.396;2022-12-18T00:47:47;44.85;;;16.42;;
28192;SDS011;15473;50.840;3.396;2022-12-18T00:50:24;34.15;;;14.28;;
28192;SDS011;15473;50.840;3.396;2022-12-18T00:53:01;33.60;;;15.70;;
28192;SDS011;15473;50.840;3.396;2022-12-18T00:55:31;31.17;;;14.43;;
28192;SDS011;15473;50.840;3.396;2022-12-18T00:58:08;35.63;;;14.33;;
28192;SDS011;15473;50.840;3.396;2022-12-18T01:00:47;35.80;;;14.53;;
28192;SDS011;15473;50.840;3.396;2022-12-18T01:03:17;37.63;;;15.28;;
28192;SDS011;15473;50.840;3.396;2022-12-18T01:05:54;47.27;;;15.80;;
28192;SDS011;15473;50.840;3.396;2022-12-18T01:08:30;30.60;;;13.68;;
28192;SDS011;15473;50.840;3.396;2022-12-18T01:11:07;33.53;;;13.78;;
28192;SDS011;15473;50.840;3.396;2022-12-18T01:13:46;37.00;;;15.68;;
28192;SDS011;15473;50.840;3.396;2022-12-18T01:16:23;38.75;;;14.90;;
28192;SDS011;15473;50.840;3.396;2022-12-18T01:18:53;35.17;;;15.40;;
28192;SDS011;15473;50.840;3.396;2022-12-18T01:21:24;34.40;;;13.93;;
28192;SDS011;15473;50.840;3.396;2022-12-18T01:24:00;36.73;;;14.78;;
28192;SDS011;15473;50.840;3.396;2022-12-18T01:26:34;30.27;;;15.05;;
28192;SDS011;15473;50.840;3.396;2022-12-18T01:29:10;35.83;;;14.58;;
28192;SDS011;15473;50.840;3.396;2022-12-18T01:31:44;40.15;;;15.88;;
28192;SDS011;15473;50.840;3.396;2022-12-18T01:34:14;36.48;;;15.38;;
28192;SDS011;15473;50.840;3.396;2022-12-18T01:36:51;32.88;;;14.25;;
28192;SDS011;15473;50.840;3.396;2022-12-18T01:39:22;32.17;;;14.93;;
28192;SDS011;15473;50.840;3.396;2022-12-18T01:41:59;35.05;;;14.73;;
28192;SDS011;15473;50.840;3.396;2022-12-18T01:47:49;38.73;;;14.43;;
28192;SDS011;15473;50.840;3.396;2022-12-18T01:55:48;39.27;;;15.38;;
28192;SDS011;15473;50.840;3.396;2022-12-18T01:58:27;32.40;;;13.85;;
28192;SDS011;15473;50.840;3.396;2022-12-18T02:01:20;33.55;;;13.15;;
28192;SDS011;15473;50.840;3.396;2022-12-18T02:07:19;33.63;;;13.55;;
28192;SDS011;15473;50.840;3.396;2022-12-18T02:10:14;46.55;;;15.03;;
28192;SDS011;15473;50.840;3.396;2022-12-18T02:12:48;29.37;;;13.25;;
28192;SDS011;15473;50.840;3.396;2022-12-18T02:18:05;29.87;;;13.28;;
28192;SDS011;15473;50.840;3.396;2022-12-18T02:20:47;38.02;;;14.38;;
28192;SDS011;15473;50.840;3.396;2022-12-18T02:26:15;23.60;;;12.53;;
28192;SDS011;15473;50.840;3.396;2022-12-18T02:29:18;33.10;;;14.70;;
28192;SDS011;15473;50.840;3.396;2022-12-18T02:31:53;30.65;;;13.58;;
28192;SDS011;15473;50.840;3.396;2022-12-18T02:34:29;26.27;;;13.28;;
28192;SDS011;15473;50.840;3.396;2022-12-18T02:37:09;33.18;;;14.18;;
28192;SDS011;15473;50.840;3.396;2022-12-18T02:39:48;32.30;;;14.18;;
28192;SDS011;15473;50.840;3.396;2022-12-18T02:42:26;35.78;;;14.15;;
28192;SDS011;15473;50.840;3.396;2022-12-18T02:45:04;35.52;;;14.68;;
28192;SDS011;15473;50.840;3.396;2022-12-18T02:47:42;36.50;;;15.38;;
28192;SDS011;15473;50.840;3.396;2022-12-18T02:50:30;27.20;;;13.93;;
28192;SDS011;15473;50.840;3.396;2022-12-18T02:56:10;35.17;;;15.00;;
28192;SDS011;15473;50.840;3.396;2022-12-18T02:58:54;34.25;;;13.95;;
28192;SDS011;15473;50.840;3.396;2022-12-18T03:07:00;35.70;;;12.90;;
28192;SDS011;15473;50.840;3.396;2022-12-18T03:09:33;28.55;;;13.30;;
28192;SDS011;15473;50.840;3.396;2022-12-18T03:12:11;31.00;;;13.05;;
28192;SDS011;15473;50.840;3.396;2022-12-18T03:17:41;24.50;;;13.55;;
28192;SDS011;15473;50.840;3.396;2022-12-18T03:20:19;28.45;;;14.03;;
28192;SDS011;15473;50.840;3.396;2022-12-18T03:22:55;32.15;;;12.85;;
28192;SDS011;15473;50.840;3.396;2022-12-18T03:25:33;31.10;;;12.75;;
28192;SDS011;15473;50.840;3.396;2022-12-18T03:28:13;30.57;;;13.65;;
28192;SDS011;15473;50.840;3.396;2022-12-18T03:30:45;28.77;;;12.98;;
28192;SDS011;15473;50.840;3.396;2022-12-18T03:36:15;31.85;;;12.47;;
28192;SDS011;15473;50.840;3.396;2022-12-18T03:38:52;33.00;;;13.43;;
28192;SDS011;15473;50.840;3.396;2022-12-18T03:41:31;31.60;;;13.40;;
28192;SDS011;15473;50.840;3.396;2022-12-18T03:53:34;25.85;;;11.57;;
28192;SDS011;15473;50.840;3.396;2022-12-18T03:56:31;29.40;;;12.53;;
28192;SDS011;15473;50.840;3.396;2022-12-18T03:59:09;27.62;;;11.65;;
28192;SDS011;15473;50.840;3.396;2022-12-18T04:01:49;24.43;;;12.28;;
28192;SDS011;15473;50.840;3.396;2022-12-18T04:04:21;28.25;;;11.83;;
28192;SDS011;15473;50.840;3.396;2022-12-18T04:07:12;31.68;;;13.35;;
28192;SDS011;15473;50.840;3.396;2022-12-18T04:09:57;22.00;;;11.30;;
28192;SDS011;15473;50.840;3.396;2022-12-18T04:12:29;26.70;;;11.80;;
28192;SDS011;15473;50.840;3.396;2022-12-18T04:14:59;29.42;;;12.18;;
28192;SDS011;15473;50.840;3.396;2022-12-18T04:17:36;31.10;;;12.63;;
28192;SDS011;15473;50.840;3.396;2022-12-18T04:20:08;34.43;;;12.93;;
28192;SDS011;15473;50.840;3.396;2022-12-18T04:22:39;29.02;;;12.20;;
28192;SDS011;15473;50.840;3.396;2022-12-18T04:25:10;25.75;;;11.10;;
28192;SDS011;15473;50.840;3.396;2022-12-18T04:27:47;25.15;;;11.78;;
28192;SDS011;15473;50.840;3.396;2022-12-18T04:30:24;29.63;;;11.85;;
28192;SDS011;15473;50.840;3.396;2022-12-18T04:32:54;27.70;;;12.07;;
28192;SDS011;15473;50.840;3.396;2022-12-18T04:35:26;28.25;;;12.40;;
28192;SDS011;15473;50.840;3.396;2022-12-18T04:37:58;29.85;;;12.05;;
28192;SDS011;15473;50.840;3.396;2022-12-18T04:40:29;27.60;;;12.50;;
28192;SDS011;15473;50.840;3.396;2022-12-18T04:43:06;23.73;;;11.95;;
28192;SDS011;15473;50.840;3.396;2022-12-18T04:45:43;22.62;;;11.53;;
28192;SDS011;15473;50.840;3.396;2022-12-18T04:48:20;24.32;;;11.45;;
28192;SDS011;15473;50.840;3.396;2022-12-18T04:50:51;23.87;;;11.55;;
28192;SDS011;15473;50.840;3.396;2022-12-18T04:53:28;20.90;;;10.80;;
28192;SDS011;15473;50.840;3.396;2022-12-18T04:56:09;28.65;;;12.13;;
28192;SDS011;15473;50.840;3.396;2022-12-18T04:58:42;25.23;;;10.65;;
28192;SDS011;15473;50.840;3.396;2022-12-18T05:01:26;21.52;;;11.73;;
28192;SDS011;15473;50.840;3.396;2022-12-18T05:04:03;23.47;;;11.18;;
28192;SDS011;15473;50.840;3.396;2022-12-18T05:06:40;26.48;;;10.63;;
28192;SDS011;15473;50.840;3.396;2022-12-18T05:09:10;21.97;;;10.90;;
28192;SDS011;15473;50.840;3.396;2022-12-18T05:11:47;24.10;;;11.57;;
28192;SDS011;15473;50.840;3.396;2022-12-18T05:14:21;28.35;;;12.63;;
28192;SDS011;15473;50.840;3.396;2022-12-18T05:16:58;26.75;;;11.43;;
28192;SDS011;15473;50.840;3.396;2022-12-18T05:19:35;23.65;;;12.45;;
28192;SDS011;15473;50.840;3.396;2022-12-18T05:22:07;24.65;;;10.72;;
28192;SDS011;15473;50.840;3.396;2022-12-18T05:24:44;21.48;;;11.25;;
28192;SDS011;15473;50.840;3.396;2022-12-18T05:27:14;22.80;;;10.63;;
28192;SDS011;15473;50.840;3.396;2022-12-18T05:29:52;22.48;;;10.65;;
28192;SDS011;15473;50.840;3.396;2022-12-18T05:32:29;23.05;;;10.30;;
28192;SDS011;15473;50.840;3.396;2022-12-18T05:35:06;22.02;;;10.20;;
28192;SDS011;15473;50.840;3.396;2022-12-18T05:37:44;18.60;;;9.70;;
28192;SDS011;15473;50.840;3.396;2022-12-18T05:40:20;22.40;;;9.55;;
28192;SDS011;15473;50.840;3.396;2022-12-18T05:42:50;24.43;;;10.68;;
28192;SDS011;15473;50.840;3.396;2022-12-18T05:45:27;18.77;;;10.10;;
28192;SDS011;15473;50.840;3.396;2022-12-18T05:48:03;20.55;;;9.65;;
28192;SDS011;15473;50.840;3.396;2022-12-18T05:50:40;24.52;;;11.05;;
28192;SDS011;15473;50.840;3.396;2022-12-18T05:53:14;21.87;;;10.18;;
28192;SDS011;15473;50.840;3.396;2022-12-18T05:55:47;20.60;;;9.93;;
28192;SDS011;15473;50.840;3.396;2022-12-18T05:58:17;24.70;;;10.35;;
28192;SDS011;15473;50.840;3.396;2022-12-18T06:00:54;24.60;;;9.78;;
28192;SDS011;15473;50.840;3.396;2022-12-18T06:03:25;19.52;;;10.13;;
28192;SDS011;15473;50.840;3.396;2022-12-18T06:05:55;22.05;;;11.12;;
28192;SDS011;15473;50.840;3.396;2022-12-18T06:08:25;23.95;;;10.32;;
28192;SDS011;15473;50.840;3.396;2022-12-18T06:11:05;21.77;;;9.68;;
28192;SDS011;15473;50.840;3.396;2022-12-18T06:13:41;21.10;;;9.93;;
28192;SDS011;15473;50.840;3.396;2022-12-18T06:16:18;21.55;;;9.60;;
28192;SDS011;15473;50.840;3.396;2022-12-18T06:18:49;22.10;;;9.60;;
28192;SDS011;15473;50.840;3.396;2022-12-18T06:21:26;19.95;;;9.65;;
28192;SDS011;15473;50.840;3.396;2022-12-18T06:23:57;21.17;;;10.25;;
28192;SDS011;15473;50.840;3.396;2022-12-18T06:26:33;28.70;;;10.68;;
28192;SDS011;15473;50.840;3.396;2022-12-18T06:29:11;17.40;;;9.73;;
28192;SDS011;15473;50.840;3.396;2022-12-18T06:31:42;19.27;;;10.30;;
28192;SDS011;15473;50.840;3.396;2022-12-18T06:34:19;24.47;;;10.00;;
28192;SDS011;15473;50.840;3.396;2022-12-18T06:36:56;24.35;;;10.28;;
28192;SDS011;15473;50.840;3.396;2022-12-18T06:39:33;15.70;;;9.00;;
28192;SDS011;15473;50.840;3.396;2022-12-18T06:42:10;24.87;;;10.13;;
28192;SDS011;15473;50.840;3.396;2022-12-18T06:44:42;21.02;;;10.18;;
28192;SDS011;15473;50.840;3.396;2022-12-18T06:47:19;20.50;;;10.55;;
28192;SDS011;15473;50.840;3.396;2022-12-18T06:52:51;22.80;;;11.08;;
28192;SDS011;15473;50.840;3.396;2022-12-18T06:55:29;18.60;;;9.10;;
28192;SDS011;15473;50.840;3.396;2022-12-18T06:58:06;21.25;;;9.53;;
28192;SDS011;15473;50.840;3.396;2022-12-18T07:00:39;17.55;;;9.70;;
28192;SDS011;15473;50.840;3.396;2022-12-18T07:03:16;22.60;;;10.18;;
28192;SDS011;15473;50.840;3.396;2022-12-18T07:05:53;20.88;;;9.73;;
28192;SDS011;15473;50.840;3.396;2022-12-18T07:08:31;15.70;;;8.43;;
28192;SDS011;15473;50.840;3.396;2022-12-18T07:11:03;19.27;;;8.98;;
28192;SDS011;15473;50.840;3.396;2022-12-18T07:13:33;21.52;;;9.85;;
28192;SDS011;15473;50.840;3.396;2022-12-18T07:16:11;18.77;;;9.23;;
28192;SDS011;15473;50.840;3.396;2022-12-18T07:18:49;20.57;;;9.33;;
28192;SDS011;15473;50.840;3.396;2022-12-18T07:21:26;22.80;;;10.20;;
28192;SDS011;15473;50.840;3.396;2022-12-18T07:23:56;18.90;;;10.23;;
28192;SDS011;15473;50.840;3.396;2022-12-18T07:26:26;18.90;;;9.63;;
28192;SDS011;15473;50.840;3.396;2022-12-18T07:29:02;22.07;;;10.45;;
28192;SDS011;15473;50.840;3.396;2022-12-18T07:31:39;21.12;;;10.55;;
28192;SDS011;15473;50.840;3.396;2022-12-18T07:34:16;23.70;;;10.25;;
28192;SDS011;15473;50.840;3.396;2022-12-18T07:36:53;18.12;;;8.78;;
28192;SDS011;15473;50.840;3.396;2022-12-18T07:39:23;19.02;;;9.20;;
28192;SDS011;15473;50.840;3.396;2022-12-18T07:41:53;16.95;;;9.08;;
28192;SDS011;15473;50.840;3.396;2022-12-18T07:44:49;17.37;;;7.70;;
28192;SDS011;15473;50.840;3.396;2022-12-18T07:47:19;14.75;;;7.60;;
28192;SDS011;15473;50.840;3.396;2022-12-18T07:50:00;20.43;;;9.05;;
28192;SDS011;15473;50.840;3.396;2022-12-18T07:52:30;19.52;;;8.75;;
28192;SDS011;15473;50.840;3.396;2022-12-18T07:55:06;18.62;;;9.33;;
28192;SDS011;15473;50.840;3.396;2022-12-18T07:57:37;20.35;;;9.75;;
28192;SDS011;15473;50.840;3.396;2022-12-18T08:00:08;20.23;;;8.35;;
28192;SDS011;15473;50.840;3.396;2022-12-18T08:02:46;18.45;;;9.15;;
28192;SDS011;15473;50.840;3.396;2022-12-18T08:05:16;19.42;;;9.13;;
28192;SDS011;15473;50.840;3.396;2022-12-18T08:08:01;22.55;;;9.13;;
28192;SDS011;15473;50.840;3.396;2022-12-18T08:10:43;21.05;;;9.00;;
28192;SDS011;15473;50.840;3.396;2022-12-18T08:13:19;17.90;;;7.80;;
28192;SDS011;15473;50.840;3.396;2022-12-18T08:16:00;18.85;;;8.50;;
28192;SDS011;15473;50.840;3.396;2022-12-18T08:18:38;17.50;;;8.85;;
28192;SDS011;15473;50.840;3.396;2022-12-18T08:21:09;18.45;;;9.45;;
28192;SDS011;15473;50.840;3.396;2022-12-18T08:23:39;17.40;;;9.35;;
28192;SDS011;15473;50.840;3.396;2022-12-18T08:26:10;14.98;;;7.78;;
28192;SDS011;15473;50.840;3.396;2022-12-18T08:28:49;14.30;;;7.40;;
28192;SDS011;15473;50.840;3.396;2022-12-18T08:31:26;15.98;;;7.55;;
28192;SDS011;15473;50.840;3.396;2022-12-18T08:33:58;17.05;;;7.40;;
28192;SDS011;15473;50.840;3.396;2022-12-18T08:36:34;14.73;;;7.45;;
28192;SDS011;15473;50.840;3.396;2022-12-18T08:39:10;14.50;;;6.70;;
28192;SDS011;15473;50.840;3.396;2022-12-18T08:41:47;16.70;;;7.12;;
28192;SDS011;15473;50.840;3.396;2022-12-18T08:44:19;14.68;;;7.00;;
28192;SDS011;15473;50.840;3.396;2022-12-18T08:47:07;10.50;;;5.75;;
28192;SDS011;15473;50.840;3.396;2022-12-18T08:49:43;13.90;;;6.25;;
28192;SDS011;15473;50.840;3.396;2022-12-18T08:52:20;13.93;;;6.10;;
28192;SDS011;15473;50.840;3.396;2022-12-18T08:54:57;17.48;;;7.40;;
28192;SDS011;15473;50.840;3.396;2022-12-18T08:57:27;11.12;;;6.33;;
28192;SDS011;15473;50.840;3.396;2022-12-18T08:59:57;12.00;;;6.30;;
28192;SDS011;15473;50.840;3.396;2022-12-18T09:02:40;12.00;;;5.97;;
28192;SDS011;15473;50.840;3.396;2022-12-18T09:05:17;11.60;;;5.85;;
28192;SDS011;15473;50.840;3.396;2022-12-18T09:07:49;14.10;;;6.33;;
28192;SDS011;15473;50.840;3.396;2022-12-18T09:10:26;13.03;;;6.53;;
28192;SDS011;15473;50.840;3.396;2022-12-18T09:13:02;13.58;;;6.65;;
28192;SDS011;15473;50.840;3.396;2022-12-18T09:15:46;11.85;;;6.17;;
28192;SDS011;15473;50.840;3.396;2022-12-18T09:18:25;10.48;;;6.00;;
28192;SDS011;15473;50.840;3.396;2022-12-18T09:21:14;16.57;;;7.00;;
28192;SDS011;15473;50.840;3.396;2022-12-18T09:23:41;13.83;;;6.55;;
28192;SDS011;15473;50.840;3.396;2022-12-18T09:26:18;14.28;;;6.87;;
28192;SDS011;15473;50.840;3.396;2022-12-18T09:28:54;16.20;;;7.95;;
28192;SDS011;15473;50.840;3.396;2022-12-18T09:31:24;14.73;;;7.60;;
28192;SDS011;15473;50.840;3.396;2022-12-18T09:33:55;13.28;;;6.85;;
28192;SDS011;15473;50.840;3.396;2022-12-18T09:36:25;13.80;;;6.85;;
28192;SDS011;15473;50.840;3.396;2022-12-18T09:39:02;15.72;;;7.42;;
28192;SDS011;15473;50.840;3.396;2022-12-18T09:41:52;14.78;;;7.05;;
28192;SDS011;15473;50.840;3.396;2022-12-18T09:44:30;11.63;;;6.83;;
28192;SDS011;15473;50.840;3.396;2022-12-18T09:47:07;13.38;;;7.25;;
28192;SDS011;15473;50.840;3.396;2022-12-18T09:49:46;11.85;;;7.00;;
28192;SDS011;15473;50.840;3.396;2022-12-18T09:52:32;16.05;;;7.95;;
28192;SDS011;15473;50.840;3.396;2022-12-18T09:55:11;18.32;;;8.18;;
28192;SDS011;15473;50.840;3.396;2022-12-18T09:57:47;13.03;;;6.87;;
28192;SDS011;15473;50.840;3.396;2022-12-18T10:00:19;16.97;;;7.85;;
28192;SDS011;15473;50.840;3.396;2022-12-18T10:02:51;14.03;;;7.92;;
28192;SDS011;15473;50.840;3.396;2022-12-18T10:20:20;17.57;;;8.17;;
28192;SDS011;15473;50.840;3.396;2022-12-18T10:28:21;17.17;;;8.75;;
28192;SDS011;15473;50.840;3.396;2022-12-18T10:30:54;16.25;;;8.63;;
28192;SDS011;15473;50.840;3.396;2022-12-18T10:33:32;17.07;;;8.25;;
28192;SDS011;15473;50.840;3.396;2022-12-18T10:36:03;17.07;;;8.40;;
28192;SDS011;15473;50.840;3.396;2022-12-18T10:38:40;14.65;;;8.18;;
28192;SDS011;15473;50.840;3.396;2022-12-18T10:44:14;14.73;;;7.92;;
28192;SDS011;15473;50.840;3.396;2022-12-18T10:46:46;16.70;;;7.85;;
28192;SDS011;15473;50.840;3.396;2022-12-18T10:49:28;14.63;;;8.58;;
28192;SDS011;15473;50.840;3.396;2022-12-18T10:52:14;18.87;;;8.55;;
28192;SDS011;15473;50.840;3.396;2022-12-18T10:54:52;15.32;;;8.05;;
28192;SDS011;15473;50.840;3.396;2022-12-18T11:00:26;17.90;;;9.53;;
28192;SDS011;15473;50.840;3.396;2022-12-18T11:02:58;14.63;;;7.70;;
28192;SDS011;15473;50.840;3.396;2022-12-18T11:05:35;16.07;;;8.93;;
28192;SDS011;15473;50.840;3.396;2022-12-18T11:08:05;15.98;;;8.48;;
28192;SDS011;15473;50.840;3.396;2022-12-18T11:10:37;19.73;;;10.20;;
28192;SDS011;15473;50.840;3.396;2022-12-18T11:13:18;18.20;;;9.30;;
28192;SDS011;15473;50.840;3.396;2022-12-18T11:15:50;19.73;;;9.75;;
28192;SDS011;15473;50.840;3.396;2022-12-18T11:20:59;17.75;;;8.65;;
28192;SDS011;15473;50.840;3.396;2022-12-18T11:23:30;17.02;;;9.65;;
28192;SDS011;15473;50.840;3.396;2022-12-18T11:26:01;18.82;;;9.73;;
28192;SDS011;15473;50.840;3.396;2022-12-18T11:28:40;23.40;;;10.58;;
28192;SDS011;15473;50.840;3.396;2022-12-18T11:34:12;20.52;;;10.32;;
28192;SDS011;15473;50.840;3.396;2022-12-18T11:36:50;22.82;;;10.80;;
28192;SDS011;15473;50.840;3.396;2022-12-18T11:39:35;19.25;;;10.38;;
28192;SDS011;15473;50.840;3.396;2022-12-18T11:42:14;22.70;;;11.45;;
28192;SDS011;15473;50.840;3.396;2022-12-18T11:47:44;26.07;;;11.78;;
28192;SDS011;15473;50.840;3.396;2022-12-18T11:50:28;25.60;;;11.93;;
28192;SDS011;15473;50.840;3.396;2022-12-18T11:53:09;25.80;;;12.90;;
28192;SDS011;15473;50.840;3.396;2022-12-18T11:58:47;26.15;;;12.78;;
28192;SDS011;15473;50.840;3.396;2022-12-18T12:01:47;25.55;;;13.18;;
28192;SDS011;15473;50.840;3.396;2022-12-18T12:04:39;27.17;;;13.18;;
28192;SDS011;15473;50.840;3.396;2022-12-18T12:10:06;33.23;;;16.37;;
28192;SDS011;15473;50.840;3.396;2022-12-18T12:18:40;41.02;;;16.10;;
28192;SDS011;15473;50.840;3.396;2022-12-18T12:29:46;41.42;;;17.77;;
28192;SDS011;15473;50.840;3.396;2022-12-18T12:32:49;34.20;;;16.05;;
28192;SDS011;15473;50.840;3.396;2022-12-18T12:35:31;34.80;;;17.00;;
28192;SDS011;15473;50.840;3.396;2022-12-18T12:38:33;32.53;;;15.80;;
28192;SDS011;15473;50.840;3.396;2022-12-18T12:41:04;28.15;;;14.58;;
28192;SDS011;15473;50.840;3.396;2022-12-18T12:43:45;34.43;;;15.20;;
28192;SDS011;15473;50.840;3.396;2022-12-18T12:46:18;36.80;;;15.75;;
28192;SDS011;15473;50.840;3.396;2022-12-18T12:49:02;33.80;;;15.30;;
28192;SDS011;15473;50.840;3.396;2022-12-18T12:51:35;35.35;;;15.53;;
28192;SDS011;15473;50.840;3.396;2022-12-18T12:54:05;30.12;;;14.60;;
28192;SDS011;15473;50.840;3.396;2022-12-18T13:02:37;31.33;;;15.05;;
28192;SDS011;15473;50.840;3.396;2022-12-18T13:05:46;31.73;;;15.48;;
28192;SDS011;15473;50.840;3.396;2022-12-18T13:08:23;29.37;;;14.18;;
28192;SDS011;15473;50.840;3.396;2022-12-18T13:11:01;31.75;;;14.73;;
28192;SDS011;15473;50.840;3.396;2022-12-18T13:13:54;31.37;;;14.15;;
28192;SDS011;15473;50.840;3.396;2022-12-18T13:16:44;28.00;;;13.70;;
28192;SDS011;15473;50.840;3.396;2022-12-18T13:19:23;35.68;;;16.20;;
28192;SDS011;15473;50.840;3.396;2022-12-18T13:21:57;33.90;;;15.50;;
28192;SDS011;15473;50.840;3.396;2022-12-18T13:24:33;32.23;;;14.05;;
28192;SDS011;15473;50.840;3.396;2022-12-18T13:33:50;36.35;;;14.45;;
28192;SDS011;15473;50.840;3.396;2022-12-18T13:44:12;35.98;;;14.25;;
28192;SDS011;15473;50.840;3.396;2022-12-18T13:47:04;38.67;;;16.27;;
28192;SDS011;15473;50.840;3.396;2022-12-18T13:49:43;36.53;;;15.03;;
28192;SDS011;15473;50.840;3.396;2022-12-18T13:52:22;33.40;;;13.78;;
28192;SDS011;15473;50.840;3.396;2022-12-18T13:55:05;34.48;;;13.90;;
28192;SDS011;15473;50.840;3.396;2022-12-18T13:57:44;33.35;;;13.58;;
28192;SDS011;15473;50.840;3.396;2022-12-18T14:00:25;36.63;;;14.38;;
28192;SDS011;15473;50.840;3.396;2022-12-18T14:02:57;31.50;;;14.23;;
28192;SDS011;15473;50.840;3.396;2022-12-18T14:05:29;32.20;;;14.40;;
28192;SDS011;15473;50.840;3.396;2022-12-18T14:08:24;30.12;;;13.53;;
28192;SDS011;15473;50.840;3.396;2022-12-18T14:11:04;37.35;;;14.43;;
28192;SDS011;15473;50.840;3.396;2022-12-18T14:13:37;35.38;;;14.65;;
28192;SDS011;15473;50.840;3.396;2022-12-18T14:16:15;35.63;;;15.15;;
28192;SDS011;15473;50.840;3.396;2022-12-18T14:18:54;34.92;;;13.60;;
28192;SDS011;15473;50.840;3.396;2022-12-18T14:21:33;35.30;;;14.07;;
28192;SDS011;15473;50.840;3.396;2022-12-18T14:24:18;39.13;;;13.90;;
28192;SDS011;15473;50.840;3.396;2022-12-18T14:26:50;28.75;;;13.55;;
28192;SDS011;15473;50.840;3.396;2022-12-18T14:29:30;28.17;;;12.18;;
28192;SDS011;15473;50.840;3.396;2022-12-18T14:34:49;33.48;;;13.90;;
28192;SDS011;15473;50.840;3.396;2022-12-18T14:40:11;33.67;;;12.68;;
28192;SDS011;15473;50.840;3.396;2022-12-18T14:42:42;45.08;;;15.23;;
28192;SDS011;15473;50.840;3.396;2022-12-18T14:48:19;41.10;;;16.10;;
28192;SDS011;15473;50.840;3.396;2022-12-18T14:53:59;39.50;;;17.40;;
28192;SDS011;15473;50.840;3.396;2022-12-18T14:56:45;49.03;;;20.12;;
28192;SDS011;15473;50.840;3.396;2022-12-18T14:59:24;55.28;;;20.60;;
28192;SDS011;15473;50.840;3.396;2022-12-18T15:01:58;51.58;;;17.95;;
28192;SDS011;15473;50.840;3.396;2022-12-18T15:04:40;42.27;;;17.57;;
28192;SDS011;15473;50.840;3.396;2022-12-18T15:07:24;49.23;;;18.35;;
28192;SDS011;15473;50.840;3.396;2022-12-18T15:10:19;41.08;;;15.65;;
28192;SDS011;15473;50.840;3.396;2022-12-18T15:18:21;38.28;;;16.52;;
28192;SDS011;15473;50.840;3.396;2022-12-18T15:20:54;38.83;;;15.10;;
28192;SDS011;15473;50.840;3.396;2022-12-18T15:26:22;39.15;;;14.45;;
28192;SDS011;15473;50.840;3.396;2022-12-18T15:28:59;40.12;;;13.75;;
28192;SDS011;15473;50.840;3.396;2022-12-18T15:31:32;37.78;;;15.35;;
28192;SDS011;15473;50.840;3.396;2022-12-18T15:34:14;36.45;;;15.38;;
28192;SDS011;15473;50.840;3.396;2022-12-18T15:36:45;37.60;;;15.95;;
28192;SDS011;15473;50.840;3.396;2022-12-18T15:39:16;36.17;;;14.63;;
28192;SDS011;15473;50.840;3.396;2022-12-18T15:41:53;35.13;;;14.07;;
28192;SDS011;15473;50.840;3.396;2022-12-18T15:44:43;34.13;;;13.50;;
28192;SDS011;15473;50.840;3.396;2022-12-18T15:47:13;37.10;;;15.25;;
28192;SDS011;15473;50.840;3.396;2022-12-18T15:49:44;37.63;;;14.95;;
28192;SDS011;15473;50.840;3.396;2022-12-18T15:52:14;38.17;;;15.38;;
28192;SDS011;15473;50.840;3.396;2022-12-18T15:54:53;42.53;;;14.83;;
28192;SDS011;15473;50.840;3.396;2022-12-18T15:57:44;36.23;;;13.08;;
28192;SDS011;15473;50.840;3.396;2022-12-18T16:00:21;32.90;;;14.45;;
28192;SDS011;15473;50.840;3.396;2022-12-18T16:02:53;38.42;;;15.03;;
28192;SDS011;15473;50.840;3.396;2022-12-18T16:05:30;30.88;;;12.93;;
28192;SDS011;15473;50.840;3.396;2022-12-18T16:14:24;45.23;;;16.23;;
28192;SDS011;15473;50.840;3.396;2022-12-18T16:16:56;34.03;;;15.32;;
28192;SDS011;15473;50.840;3.396;2022-12-18T16:20:15;35.38;;;14.13;;
28192;SDS011;15473;50.840;3.396;2022-12-18T16:22:46;39.73;;;15.58;;
28192;SDS011;15473;50.840;3.396;2022-12-18T16:25:28;39.50;;;16.30;;
28192;SDS011;15473;50.840;3.396;2022-12-18T16:28:15;37.42;;;14.07;;
28192;SDS011;15473;50.840;3.396;2022-12-18T16:31:16;33.15;;;13.22;;
28192;SDS011;15473;50.840;3.396;2022-12-18T16:34:41;35.95;;;14.85;;
28192;SDS011;15473;50.840;3.396;2022-12-18T16:37:03;35.48;;;14.70;;
28192;SDS011;15473;50.840;3.396;2022-12-18T16:42:22;30.25;;;14.68;;
28192;SDS011;15473;50.840;3.396;2022-12-18T16:44:53;35.48;;;12.55;;
28192;SDS011;15473;50.840;3.396;2022-12-18T16:47:23;31.75;;;13.68;;
28192;SDS011;15473;50.840;3.396;2022-12-18T16:49:53;36.83;;;15.08;;
28192;SDS011;15473;50.840;3.396;2022-12-18T16:52:23;32.88;;;13.50;;
28192;SDS011;15473;50.840;3.396;2022-12-18T16:55:00;30.70;;;13.08;;
28192;SDS011;15473;50.840;3.396;2022-12-18T16:57:37;31.15;;;13.65;;
28192;SDS011;15473;50.840;3.396;2022-12-18T17:00:11;34.27;;;12.23;;
28192;SDS011;15473;50.840;3.396;2022-12-18T17:02:42;28.40;;;11.80;;
28192;SDS011;15473;50.840;3.396;2022-12-18T17:05:13;32.95;;;12.58;;
28192;SDS011;15473;50.840;3.396;2022-12-18T17:07:45;36.17;;;12.07;;
28192;SDS011;15473;50.840;3.396;2022-12-18T17:10:28;37.28;;;13.50;;
28192;SDS011;15473;50.840;3.396;2022-12-18T17:12:58;25.97;;;11.18;;
28192;SDS011;15473;50.840;3.396;2022-12-18T17:15:28;33.10;;;12.00;;
28192;SDS011;15473;50.840;3.396;2022-12-18T17:18:02;35.30;;;13.70;;
28192;SDS011;15473;50.840;3.396;2022-12-18T17:20:44;25.48;;;11.95;;
28192;SDS011;15473;50.840;3.396;2022-12-18T17:23:14;29.90;;;12.63;;
28192;SDS011;15473;50.840;3.396;2022-12-18T17:25:44;26.48;;;11.33;;
28192;SDS011;15473;50.840;3.396;2022-12-18T17:28:21;31.40;;;12.15;;
28192;SDS011;15473;50.840;3.396;2022-12-18T17:30:59;31.48;;;12.20;;
28192;SDS011;15473;50.840;3.396;2022-12-18T17:33:49;27.07;;;12.05;;
28192;SDS011;15473;50.840;3.396;2022-12-18T17:36:37;30.85;;;11.85;;
28192;SDS011;15473;50.840;3.396;2022-12-18T17:39:30;28.27;;;12.23;;
28192;SDS011;15473;50.840;3.396;2022-12-18T17:42:17;29.00;;;11.60;;
28192;SDS011;15473;50.840;3.396;2022-12-18T17:45:03;28.98;;;11.80;;
28192;SDS011;15473;50.840;3.396;2022-12-18T17:47:52;24.52;;;11.40;;
28192;SDS011;15473;50.840;3.396;2022-12-18T17:50:38;26.23;;;11.03;;
28192;SDS011;15473;50.840;3.396;2022-12-18T17:53:24;31.27;;;11.73;;